Aérodrome :
LOGIN :

S'inscrire | Disclaimer

   EN    FR    IT 

 










Légende :    VFR   VFR Marginal   IFR   IFR Intensif   IFR Très Intensif
Visi : 
Plafond : 
>= 8 km
>= 3000ft
5 à 8 km
1000 à 3000 ft
1500m à 5 km
500 à 1000 ft
800 à 1500m
200 à 500 ft
< 800m
< 200 ft
Symboles :   Orages  Brouillard  Fortes neiges  Fortes précipitations  Vent > 20 kt
SIGMETs :   Divers  Orages  Givrage  Turbulence  Onde Orograph.  Cendres Volcan.







- Altitude de l'aérodrome : 34 ft
- Code IATA : BLK
- Voir les cartes d'approche


EGNH - Blackpool

DERNIER METAR :
  • 181420Z 19017KT 6000 RA SCT008 BKN021 08/07 Q0998

METARs EXPIRÉS :
  • 181320Z 15024G34KT 9000 -RA BKN018 10/08 Q0998
  • 181250Z 15023G33KT 9999 -RA SCT017 BKN032 10/08 Q0999
  • 181220Z 15023KT 9999 -RA SCT016 BKN033 10/08 Q0999
  • 181150Z 15025G35KT 9999 -RA FEW017 SCT024 10/08 Q0999
  • 181120Z 15025G36KT 9999 -RA FEW018 SCT033 10/08 Q1000

TAF TAF EGNH
Valide du 18 à 15h jusqu'au 18 à 21h UTC


181404Z 1815/1821 16020G35KT 9999 SCT022
BECMG 1815/1817 19009KT
TEMPO 1815/1819 6000 RA BKN012
ATIS : +44 1253 343 434 (x8315)
Pas de NOTAMs connus pour ce terrain.
4 SIGMETs publiés pour la FIR London (EGTT) :
 
Onde orographique forte
EGTT SIGMET 08 VALID 181500/181900 EGRR
EGTT LONDON FIR SEV MTW FCST WI N5220 W00530 - N5500 W00530 - N5500 W00015 - N5024 W00255 - N4959 W00548 - N5220 W00530 FL030/250 STNR WKN=
Turbulence forte
EGTT SIGMET 07 VALID 181100/181500 EGRR
EGTT LONDON FIR SEV TURB FCST WI N5100 W00800 - N5117 W00728 - N4932 W00752 - N4932 W00800 - N5100 W00800 FL220/350 MOV E 10KT WKN=
Turbulence forte
EGTT SIGMET 06 VALID 181100/181500 EGRR
EGTT LONDON FIR SEV TURB FCST WI N5000 W00200 - N4919 W00530 - N5500 W00530 - N5500 E00100 - N5000 W00017 - N5000 W00200 SFC/FL060 MOV E 10KT WKN=
Onde orographique forte
EGTT SIGMET 05 VALID 181100/181500 EGRR
EGTT LONDON FIR SEV MTW FCST WI N5220 W00530 - N5500 W00530 - N5500 W00015 - N5024 W00255 - N4959 W00548 - N5220 W00530 - N5220 W00530 FL030/250 STNR NC=



MET'MAP, la Météo Aéronautique d'un coup d'oeil ! - Copyright ORBIFLY Décembre 2007 - Disclaimer

ORBIFLY MET'MAP TEAM :

Programmation & Développement : Alexandra Zaïnal
Conception & Développement : Baudouin d'Aumeries
Co-Programmation & Développement : Marc-Olivier Méhu
Soutien technique & logistique : Manuel Goepfert

Contact : metmap@orbifly.com




SOURCES & CREDITS :

   NOAA